San Pedro de Colalao, Argentina
Current Conditions -  °F | °C
As of 10:00 AM on Saturday 20 Dec 2014 (Local Time) from SANT Reporting Station
Clear Clear  
Wind Chill: 86°   Ceiling: Unl
Heat Index: 90°   Visibility: 6mi
Dew Point: 70°   Wind: 9mph
Humidity: 58%   Direction: 270°W
Pressure: 29.5"   Gusts: NA
Location:  26.23°S, 65.38°W
Report Text: SANT 201300Z 27008KT CAVOK 30/21 Q0999
Loading
Personal Weather Stations






























Interactive Weather Map New forecast layout! Learn more

10-Day Weather Forecast

Advertisements
Track Severe Weather on mobile